sensor_id;sensor_type;location;lat;lon;timestamp;pressure;altitude;pressure_sealevel;temperature;humidity
55418;BME280;41287;47.554;7.844;2022-10-10T00:00:50;98110.38;;;20.07;59.63
55418;BME280;41287;47.554;7.844;2022-10-10T00:03:16;98106.09;;;20.06;59.78
55418;BME280;41287;47.554;7.844;2022-10-10T00:05:42;98104.94;;;20.07;59.85
55418;BME280;41287;47.554;7.844;2022-10-10T00:08:08;98109.59;;;20.06;59.78
55418;BME280;41287;47.554;7.844;2022-10-10T00:10:34;98106.84;;;20.06;59.91
55418;BME280;41287;47.554;7.844;2022-10-10T00:13:00;98109.59;;;20.06;59.68
55418;BME280;41287;47.554;7.844;2022-10-10T00:15:27;98109.59;;;20.06;59.61
55418;BME280;41287;47.554;7.844;2022-10-10T00:17:52;98104.94;;;20.07;59.67
55418;BME280;41287;47.554;7.844;2022-10-10T00:20:19;98107.66;;;20.07;59.60
55418;BME280;41287;47.554;7.844;2022-10-10T00:22:45;98100.66;;;20.06;59.76
55418;BME280;41287;47.554;7.844;2022-10-10T00:25:11;98104.94;;;20.07;59.76
55418;BME280;41287;47.554;7.844;2022-10-10T00:27:39;98104.13;;;20.06;59.71
55418;BME280;41287;47.554;7.844;2022-10-10T00:30:07;98104.13;;;20.06;59.71
55418;BME280;41287;47.554;7.844;2022-10-10T00:32:33;98108.44;;;20.07;59.72
55418;BME280;41287;47.554;7.844;2022-10-10T00:34:59;98109.25;;;20.08;59.66
55418;BME280;41287;47.554;7.844;2022-10-10T00:37:24;98104.94;;;20.07;59.73
55418;BME280;41287;47.554;7.844;2022-10-10T00:39:50;98104.13;;;20.06;59.72
55418;BME280;41287;47.554;7.844;2022-10-10T00:42:16;98103.00;;;20.07;59.67
55418;BME280;41287;47.554;7.844;2022-10-10T00:44:44;98104.13;;;20.06;59.67
55418;BME280;41287;47.554;7.844;2022-10-10T00:47:10;98106.84;;;20.06;59.68
55418;BME280;41287;47.554;7.844;2022-10-10T00:49:38;98104.94;;;20.07;59.61
55418;BME280;41287;47.554;7.844;2022-10-10T00:52:06;98104.13;;;20.06;59.67
55418;BME280;41287;47.554;7.844;2022-10-10T00:54:34;98101.41;;;20.06;59.72
55418;BME280;41287;47.554;7.844;2022-10-10T00:57:07;98100.66;;;20.06;59.57
55418;BME280;41287;47.554;7.844;2022-10-10T00:59:33;98093.16;;;20.03;59.77
55418;BME280;41287;47.554;7.844;2022-10-10T01:02:01;98098.38;;;20.08;59.62
55418;BME280;41287;47.554;7.844;2022-10-10T01:04:42;98094.06;;;20.07;59.66
55418;BME280;41287;47.554;7.844;2022-10-10T01:07:11;98095.97;;;20.06;59.64
55418;BME280;41287;47.554;7.844;2022-10-10T01:09:39;98090.53;;;20.06;59.79
55418;BME280;41287;47.554;7.844;2022-10-10T01:12:16;98088.19;;;20.05;59.66
55418;BME280;41287;47.554;7.844;2022-10-10T01:15:11;98090.44;;;20.03;59.74
55418;BME280;41287;47.554;7.844;2022-10-10T01:18:07;98085.81;;;20.03;59.69
55418;BME280;41287;47.554;7.844;2022-10-10T01:26:12;98088.19;;;20.05;59.66
55418;BME280;41287;47.554;7.844;2022-10-10T01:28:51;98090.91;;;20.05;59.72
55418;BME280;41287;47.554;7.844;2022-10-10T01:31:22;98092.03;;;20.04;59.74
55418;BME280;41287;47.554;7.844;2022-10-10T01:33:52;98088.19;;;20.05;59.74
55418;BME280;41287;47.554;7.844;2022-10-10T01:36:36;98088.53;;;20.03;59.70
55418;BME280;41287;47.554;7.844;2022-10-10T01:42:02;98083.88;;;20.04;59.70
55418;BME280;41287;47.554;7.844;2022-10-10T01:44:30;98085.47;;;20.05;59.62
55418;BME280;41287;47.554;7.844;2022-10-10T01:46:57;98081.94;;;20.04;59.80
55418;BME280;41287;47.554;7.844;2022-10-10T01:49:24;98088.19;;;20.05;59.71
55418;BME280;41287;47.554;7.844;2022-10-10T01:52:04;98081.94;;;20.04;59.68
55418;BME280;41287;47.554;7.844;2022-10-10T01:54:51;98088.19;;;20.05;59.73
55418;BME280;41287;47.554;7.844;2022-10-10T01:57:30;98083.53;;;20.05;59.64
55418;BME280;41287;47.554;7.844;2022-10-10T02:00:11;98086.25;;;20.05;59.73
55418;BME280;41287;47.554;7.844;2022-10-10T02:03:04;98086.94;;;20.02;59.71
55418;BME280;41287;47.554;7.844;2022-10-10T02:05:51;98087.72;;;20.03;59.83
55418;BME280;41287;47.554;7.844;2022-10-10T02:10:58;98095.56;;;20.04;59.74
55418;BME280;41287;47.554;7.844;2022-10-10T02:13:29;98090.09;;;20.04;59.69
55418;BME280;41287;47.554;7.844;2022-10-10T02:15:56;98090.09;;;20.04;59.68
55418;BME280;41287;47.554;7.844;2022-10-10T02:18:26;98095.56;;;20.04;59.65
55418;BME280;41287;47.554;7.844;2022-10-10T02:20:53;98091.69;;;20.05;59.71
55418;BME280;41287;47.554;7.844;2022-10-10T02:23:21;98080.81;;;20.05;59.69
55418;BME280;41287;47.554;7.844;2022-10-10T02:25:50;98078.44;;;20.04;59.67
55418;BME280;41287;47.554;7.844;2022-10-10T02:28:22;98078.44;;;20.04;59.62
55418;BME280;41287;47.554;7.844;2022-10-10T02:30:51;98077.31;;;20.05;59.67
55418;BME280;41287;47.554;7.844;2022-10-10T02:33:21;98075.72;;;20.04;59.69
55418;BME280;41287;47.554;7.844;2022-10-10T02:35:49;98069.47;;;20.03;59.66
55418;BME280;41287;47.554;7.844;2022-10-10T02:38:16;98066.44;;;20.05;59.60
55418;BME280;41287;47.554;7.844;2022-10-10T02:40:44;98060.97;;;20.05;59.65
55418;BME280;41287;47.554;7.844;2022-10-10T02:43:12;98060.19;;;20.04;59.65
55418;BME280;41287;47.554;7.844;2022-10-10T02:45:40;98063.72;;;20.05;59.71
55418;BME280;41287;47.554;7.844;2022-10-10T02:48:05;98050.91;;;20.05;59.66
55418;BME280;41287;47.554;7.844;2022-10-10T02:50:32;98065.63;;;20.04;59.56
55418;BME280;41287;47.554;7.844;2022-10-10T02:52:58;98069.16;;;20.05;59.74
55418;BME280;41287;47.554;7.844;2022-10-10T02:55:24;98064.03;;;20.03;59.61
55418;BME280;41287;47.554;7.844;2022-10-10T02:57:50;98060.19;;;20.04;59.76
55418;BME280;41287;47.554;7.844;2022-10-10T03:00:16;98061.78;;;20.05;59.64
55418;BME280;41287;47.554;7.844;2022-10-10T03:02:42;98062.91;;;20.04;59.74
55418;BME280;41287;47.554;7.844;2022-10-10T03:05:09;98069.16;;;20.05;59.62
55418;BME280;41287;47.554;7.844;2022-10-10T03:07:35;98063.72;;;20.05;59.57
55418;BME280;41287;47.554;7.844;2022-10-10T03:10:00;98069.47;;;20.03;59.63
55418;BME280;41287;47.554;7.844;2022-10-10T03:12:25;98071.88;;;20.05;59.68
55418;BME280;41287;47.554;7.844;2022-10-10T03:14:51;98057.47;;;20.04;59.90
55418;BME280;41287;47.554;7.844;2022-10-10T03:17:18;98063.72;;;20.05;59.67
55418;BME280;41287;47.554;7.844;2022-10-10T03:19:46;98056.69;;;20.04;59.67
55418;BME280;41287;47.554;7.844;2022-10-10T03:22:11;98055.53;;;20.05;59.65
55418;BME280;41287;47.554;7.844;2022-10-10T03:24:37;98060.19;;;20.04;59.58
55418;BME280;41287;47.554;7.844;2022-10-10T03:27:02;98056.69;;;20.04;59.66
55418;BME280;41287;47.554;7.844;2022-10-10T03:29:29;98055.53;;;20.05;59.65
55418;BME280;41287;47.554;7.844;2022-10-10T03:31:55;98060.97;;;20.05;59.60
55418;BME280;41287;47.554;7.844;2022-10-10T03:34:20;98057.47;;;20.04;59.61
55418;BME280;41287;47.554;7.844;2022-10-10T03:36:45;98054.75;;;20.04;59.58
55418;BME280;41287;47.554;7.844;2022-10-10T03:39:11;98062.91;;;20.04;59.62
55418;BME280;41287;47.554;7.844;2022-10-10T03:41:36;98064.03;;;20.03;59.58
55418;BME280;41287;47.554;7.844;2022-10-10T03:44:02;98055.09;;;20.03;59.59
55418;BME280;41287;47.554;7.844;2022-10-10T03:46:27;98059.41;;;20.04;59.61
55418;BME280;41287;47.554;7.844;2022-10-10T03:48:52;98059.41;;;20.04;59.59
55418;BME280;41287;47.554;7.844;2022-10-10T03:51:18;98060.97;;;20.05;59.65
55418;BME280;41287;47.554;7.844;2022-10-10T03:53:43;98059.41;;;20.04;59.64
55418;BME280;41287;47.554;7.844;2022-10-10T03:56:09;98062.91;;;20.04;59.61
55418;BME280;41287;47.554;7.844;2022-10-10T03:58:34;98065.63;;;20.04;59.63
55418;BME280;41287;47.554;7.844;2022-10-10T04:01:02;98064.84;;;20.04;59.56
55418;BME280;41287;47.554;7.844;2022-10-10T04:03:28;98066.44;;;20.05;59.61
55418;BME280;41287;47.554;7.844;2022-10-10T04:05:54;98060.97;;;20.05;59.62
55418;BME280;41287;47.554;7.844;2022-10-10T04:08:19;98073.00;;;20.04;59.55
55418;BME280;41287;47.554;7.844;2022-10-10T04:10:53;98070.63;;;20.02;59.69
55418;BME280;41287;47.554;7.844;2022-10-10T04:13:19;98073.00;;;20.04;59.62
55418;BME280;41287;47.554;7.844;2022-10-10T04:15:49;98071.41;;;20.03;59.52
55418;BME280;41287;47.554;7.844;2022-10-10T04:18:14;98072.19;;;20.03;59.61
55418;BME280;41287;47.554;7.844;2022-10-10T04:20:39;98068.34;;;20.04;59.62
55418;BME280;41287;47.554;7.844;2022-10-10T04:23:05;98071.06;;;20.04;59.55
55418;BME280;41287;47.554;7.844;2022-10-10T04:25:30;98072.19;;;20.03;59.61
55418;BME280;41287;47.554;7.844;2022-10-10T04:27:56;98067.56;;;20.04;59.64
55418;BME280;41287;47.554;7.844;2022-10-10T04:30:21;98073.00;;;20.04;59.58
55418;BME280;41287;47.554;7.844;2022-10-10T04:32:47;98069.47;;;20.03;59.62
55418;BME280;41287;47.554;7.844;2022-10-10T04:35:12;98076.84;;;20.03;59.54
55418;BME280;41287;47.554;7.844;2022-10-10T04:37:38;98068.69;;;20.03;59.75
55418;BME280;41287;47.554;7.844;2022-10-10T04:40:03;98071.41;;;20.03;59.59
55418;BME280;41287;47.554;7.844;2022-10-10T04:42:29;98071.41;;;20.03;59.62
55418;BME280;41287;47.554;7.844;2022-10-10T04:44:54;98070.28;;;20.04;59.56
55418;BME280;41287;47.554;7.844;2022-10-10T04:47:20;98076.06;;;20.02;59.61
55418;BME280;41287;47.554;7.844;2022-10-10T04:49:46;98076.84;;;20.03;59.53
55418;BME280;41287;47.554;7.844;2022-10-10T04:52:11;98073.34;;;20.02;59.55
55418;BME280;41287;47.554;7.844;2022-10-10T04:54:37;98076.84;;;20.03;59.64
55418;BME280;41287;47.554;7.844;2022-10-10T04:57:03;98079.56;;;20.03;59.69
55418;BME280;41287;47.554;7.844;2022-10-10T04:59:30;98083.09;;;20.03;59.49
55418;BME280;41287;47.554;7.844;2022-10-10T05:01:55;98082.28;;;20.03;59.56
55418;BME280;41287;47.554;7.844;2022-10-10T05:04:21;98085.00;;;20.03;59.53
55418;BME280;41287;47.554;7.844;2022-10-10T05:06:46;98085.00;;;20.03;59.56
55418;BME280;41287;47.554;7.844;2022-10-10T05:09:11;98088.53;;;20.03;59.56
55418;BME280;41287;47.554;7.844;2022-10-10T05:11:37;98085.00;;;20.03;59.66
55418;BME280;41287;47.554;7.844;2022-10-10T05:14:02;98087.72;;;20.03;59.58
55418;BME280;41287;47.554;7.844;2022-10-10T05:16:28;98083.88;;;20.04;59.56
55418;BME280;41287;47.554;7.844;2022-10-10T05:18:53;98067.88;;;20.02;59.63
55418;BME280;41287;47.554;7.844;2022-10-10T05:21:21;98073.00;;;20.04;59.56
55418;BME280;41287;47.554;7.844;2022-10-10T05:23:46;98084.22;;;20.02;59.62
55418;BME280;41287;47.554;7.844;2022-10-10T05:26:12;98085.81;;;20.03;59.61
55418;BME280;41287;47.554;7.844;2022-10-10T05:28:38;98083.41;;;20.02;59.61
55418;BME280;41287;47.554;7.844;2022-10-10T05:31:04;98087.72;;;20.03;59.55
55418;BME280;41287;47.554;7.844;2022-10-10T05:33:29;98082.28;;;20.03;59.59
55418;BME280;41287;47.554;7.844;2022-10-10T05:36:07;98090.78;;;20.01;59.47
55418;BME280;41287;47.554;7.844;2022-10-10T05:38:35;98088.84;;;20.02;59.65
55418;BME280;41287;47.554;7.844;2022-10-10T05:41:01;98084.22;;;20.02;59.54
55418;BME280;41287;47.554;7.844;2022-10-10T05:43:27;98081.50;;;20.02;59.70
55418;BME280;41287;47.554;7.844;2022-10-10T05:45:54;98090.09;;;20.04;59.68
55418;BME280;41287;47.554;7.844;2022-10-10T05:48:21;98088.53;;;20.03;59.62
55418;BME280;41287;47.554;7.844;2022-10-10T05:50:49;98088.53;;;20.03;59.61
55418;BME280;41287;47.554;7.844;2022-10-10T05:53:17;98085.81;;;20.03;59.62
55418;BME280;41287;47.554;7.844;2022-10-10T05:55:44;98085.00;;;20.03;59.71
55418;BME280;41287;47.554;7.844;2022-10-10T05:58:10;98077.97;;;20.02;59.72
55418;BME280;41287;47.554;7.844;2022-10-10T06:00:38;98088.53;;;20.03;59.67
55418;BME280;41287;47.554;7.844;2022-10-10T06:03:03;98089.66;;;20.02;59.58
55418;BME280;41287;47.554;7.844;2022-10-10T06:05:31;98098.59;;;20.03;59.60
55418;BME280;41287;47.554;7.844;2022-10-10T06:07:56;98098.59;;;20.03;59.62
55418;BME280;41287;47.554;7.844;2022-10-10T06:10:22;98095.09;;;20.02;59.63
55418;BME280;41287;47.554;7.844;2022-10-10T06:12:47;98103.25;;;20.02;59.62
55418;BME280;41287;47.554;7.844;2022-10-10T06:15:13;98101.31;;;20.03;59.54
55418;BME280;41287;47.554;7.844;2022-10-10T06:17:38;98109.47;;;20.03;59.62
55418;BME280;41287;47.554;7.844;2022-10-10T06:20:04;98114.94;;;20.03;59.59
55418;BME280;41287;47.554;7.844;2022-10-10T06:22:29;98113.34;;;20.02;59.63
55418;BME280;41287;47.554;7.844;2022-10-10T06:24:55;98113.34;;;20.02;59.63
55418;BME280;41287;47.554;7.844;2022-10-10T06:27:20;98111.06;;;20.04;59.64
55418;BME280;41287;47.554;7.844;2022-10-10T06:29:45;98119.25;;;20.04;59.62
55418;BME280;41287;47.554;7.844;2022-10-10T06:32:11;98115.38;;;20.05;59.76
55418;BME280;41287;47.554;7.844;2022-10-10T06:34:36;98120.91;;;20.08;59.95
55418;BME280;41287;47.554;7.844;2022-10-10T06:37:01;98122.97;;;20.11;60.21
55418;BME280;41287;47.554;7.844;2022-10-10T06:39:27;98127.38;;;20.16;60.22
55418;BME280;41287;47.554;7.844;2022-10-10T06:41:53;98132.94;;;20.20;61.06
55418;BME280;41287;47.554;7.844;2022-10-10T06:44:18;98135.75;;;20.23;62.04
55418;BME280;41287;47.554;7.844;2022-10-10T06:46:44;98139.72;;;20.26;63.16
55418;BME280;41287;47.554;7.844;2022-10-10T06:49:09;98142.53;;;20.29;64.04
55418;BME280;41287;47.554;7.844;2022-10-10T06:51:35;98139.16;;;20.32;65.07
55418;BME280;41287;47.554;7.844;2022-10-10T06:54:00;98133.03;;;20.35;66.30
55418;BME280;41287;47.554;7.844;2022-10-10T06:56:26;98137.00;;;20.38;67.24
55418;BME280;41287;47.554;7.844;2022-10-10T06:58:52;98142.53;;;20.41;68.15
55418;BME280;41287;47.554;7.844;2022-10-10T07:01:20;98144.59;;;20.44;69.39
55418;BME280;41287;47.554;7.844;2022-10-10T07:03:46;98157.94;;;20.49;70.04
55418;BME280;41287;47.554;7.844;2022-10-10T07:06:13;98158.88;;;20.54;71.07
55418;BME280;41287;47.554;7.844;2022-10-10T07:08:39;98158.97;;;20.57;71.83
55418;BME280;41287;47.554;7.844;2022-10-10T07:11:06;98169.16;;;20.60;72.61
55418;BME280;41287;47.554;7.844;2022-10-10T07:13:35;98172.78;;;20.64;72.76
55418;BME280;41287;47.554;7.844;2022-10-10T07:16:01;98175.25;;;20.69;73.70
55418;BME280;41287;47.554;7.844;2022-10-10T07:18:27;98170.25;;;20.71;72.93
55418;BME280;41287;47.554;7.844;2022-10-10T07:21:00;98170.72;;;20.73;73.07
55418;BME280;41287;47.554;7.844;2022-10-10T07:23:28;98169.59;;;20.74;72.97
55418;BME280;41287;47.554;7.844;2022-10-10T07:25:59;98172.75;;;20.76;73.32
55418;BME280;41287;47.554;7.844;2022-10-10T07:28:25;98163.88;;;20.79;73.31
55418;BME280;41287;47.554;7.844;2022-10-10T07:30:58;98169.00;;;20.81;74.26
55418;BME280;41287;47.554;7.844;2022-10-10T07:33:23;98182.69;;;20.84;74.07
55418;BME280;41287;47.554;7.844;2022-10-10T07:35:54;98185.09;;;20.86;74.22
55418;BME280;41287;47.554;7.844;2022-10-10T07:38:19;98187.09;;;20.89;74.65
55418;BME280;41287;47.554;7.844;2022-10-10T07:40:44;98185.63;;;20.92;75.02
55418;BME280;41287;47.554;7.844;2022-10-10T07:43:10;98199.25;;;20.92;74.33
55418;BME280;41287;47.554;7.844;2022-10-10T07:45:35;98190.97;;;20.88;71.69
55418;BME280;41287;47.554;7.844;2022-10-10T07:48:01;98204.50;;;20.84;70.72
55418;BME280;41287;47.554;7.844;2022-10-10T07:50:27;98201.31;;;20.82;70.00
55418;BME280;41287;47.554;7.844;2022-10-10T07:52:52;98197.69;;;20.78;69.06
55418;BME280;41287;47.554;7.844;2022-10-10T07:55:18;98192.59;;;20.77;68.52
55418;BME280;41287;47.554;7.844;2022-10-10T07:57:43;98188.66;;;20.74;67.84
55418;BME280;41287;47.554;7.844;2022-10-10T08:00:09;98189.00;;;20.73;67.44
55418;BME280;41287;47.554;7.844;2022-10-10T08:02:35;98191.25;;;20.71;66.66
55418;BME280;41287;47.554;7.844;2022-10-10T08:05:00;98198.97;;;20.69;66.64
55418;BME280;41287;47.554;7.844;2022-10-10T08:07:27;98195.81;;;20.67;66.49
55418;BME280;41287;47.554;7.844;2022-10-10T08:09:52;98198.88;;;20.65;66.24
55418;BME280;41287;47.554;7.844;2022-10-10T08:12:18;98197.28;;;20.64;65.94
55418;BME280;41287;47.554;7.844;2022-10-10T08:14:43;98192.97;;;20.63;66.05
55418;BME280;41287;47.554;7.844;2022-10-10T08:17:08;98194.91;;;20.63;65.49
55418;BME280;41287;47.554;7.844;2022-10-10T08:19:34;98191.38;;;20.62;65.58
55418;BME280;41287;47.554;7.844;2022-10-10T08:21:59;98198.31;;;20.60;65.30
55418;BME280;41287;47.554;7.844;2022-10-10T08:24:25;98205.69;;;20.59;65.13
55418;BME280;41287;47.554;7.844;2022-10-10T08:26:50;98200.59;;;20.58;64.98
55418;BME280;41287;47.554;7.844;2022-10-10T08:29:16;98199.00;;;20.57;65.15
55418;BME280;41287;47.554;7.844;2022-10-10T08:31:41;98198.19;;;20.56;64.89
55418;BME280;41287;47.554;7.844;2022-10-10T08:34:07;98199.34;;;20.55;64.90
55418;BME280;41287;47.554;7.844;2022-10-10T08:36:34;98192.28;;;20.54;64.71
55418;BME280;41287;47.554;7.844;2022-10-10T08:38:59;98197.75;;;20.54;64.56
55418;BME280;41287;47.554;7.844;2022-10-10T08:41:41;98194.13;;;20.50;64.23
55418;BME280;41287;47.554;7.844;2022-10-10T08:50:03;98195.97;;;20.46;64.38
55418;BME280;41287;47.554;7.844;2022-10-10T08:55:18;98204.94;;;20.46;63.79
55418;BME280;41287;47.554;7.844;2022-10-10T08:57:57;98201.03;;;20.47;63.75
55418;BME280;41287;47.554;7.844;2022-10-10T09:00:27;98201.03;;;20.47;63.92
55418;BME280;41287;47.554;7.844;2022-10-10T09:02:57;98194.84;;;20.47;63.46
55418;BME280;41287;47.554;7.844;2022-10-10T09:08:13;98195.50;;;20.44;63.07
55418;BME280;41287;47.554;7.844;2022-10-10T09:13:39;98191.53;;;20.41;63.01
55418;BME280;41287;47.554;7.844;2022-10-10T09:19:33;98203.56;;;20.40;62.58
55418;BME280;41287;47.554;7.844;2022-10-10T09:22:07;98203.22;;;20.42;62.58
55418;BME280;41287;47.554;7.844;2022-10-10T09:24:40;98204.34;;;20.41;62.52
55418;BME280;41287;47.554;7.844;2022-10-10T09:27:11;98211.72;;;20.40;62.35
55418;BME280;41287;47.554;7.844;2022-10-10T09:29:46;98216.38;;;20.40;62.39
55418;BME280;41287;47.554;7.844;2022-10-10T09:32:25;98210.16;;;20.39;62.23
55418;BME280;41287;47.554;7.844;2022-10-10T09:35:14;98208.91;;;20.37;62.29
55418;BME280;41287;47.554;7.844;2022-10-10T09:37:44;98209.34;;;20.39;62.15
55418;BME280;41287;47.554;7.844;2022-10-10T09:42:43;98216.25;;;20.36;61.98
55418;BME280;41287;47.554;7.844;2022-10-10T09:45:27;98214.69;;;20.35;61.95
55418;BME280;41287;47.554;7.844;2022-10-10T09:47:54;98219.78;;;20.37;61.60
55418;BME280;41287;47.554;7.844;2022-10-10T09:50:21;98219.78;;;20.37;61.92
55418;BME280;41287;47.554;7.844;2022-10-10T09:52:47;98216.25;;;20.36;61.84
55418;BME280;41287;47.554;7.844;2022-10-10T09:55:23;98223.97;;;20.34;61.63
55418;BME280;41287;47.554;7.844;2022-10-10T09:57:51;98227.50;;;20.35;61.75
55418;BME280;41287;47.554;7.844;2022-10-10T10:02:47;98221.25;;;20.34;61.65
55418;BME280;41287;47.554;7.844;2022-10-10T10:05:22;98211.53;;;20.33;61.57
55418;BME280;41287;47.554;7.844;2022-10-10T10:07:48;98225.13;;;20.33;61.62
55418;BME280;41287;47.554;7.844;2022-10-10T10:10:19;98219.69;;;20.33;61.55
55418;BME280;41287;47.554;7.844;2022-10-10T10:12:48;98226.22;;;20.32;61.53
55418;BME280;41287;47.554;7.844;2022-10-10T10:15:19;98221.91;;;20.31;61.54
55418;BME280;41287;47.554;7.844;2022-10-10T10:17:45;98216.16;;;20.33;61.05
55418;BME280;41287;47.554;7.844;2022-10-10T10:22:55;98216.91;;;20.21;59.22
55418;BME280;41287;47.554;7.844;2022-10-10T10:25:33;98216.59;;;20.10;58.96
55418;BME280;41287;47.554;7.844;2022-10-10T10:30:37;98219.41;;;20.02;59.36
55418;BME280;41287;47.554;7.844;2022-10-10T10:33:08;98218.50;;;19.98;59.60
55418;BME280;41287;47.554;7.844;2022-10-10T10:35:43;98205.13;;;19.93;59.72
55418;BME280;41287;47.554;7.844;2022-10-10T10:41:15;98211.47;;;19.85;59.71
55418;BME280;41287;47.554;7.844;2022-10-10T10:46:56;98216.31;;;19.79;59.84
55418;BME280;41287;47.554;7.844;2022-10-10T10:49:45;98213.16;;;19.77;59.75
55418;BME280;41287;47.554;7.844;2022-10-10T11:00:15;98203.19;;;19.69;60.17
55418;BME280;41287;47.554;7.844;2022-10-10T11:05:38;98205.13;;;19.81;60.24
55418;BME280;41287;47.554;7.844;2022-10-10T11:08:27;98201.50;;;19.89;60.37
55418;BME280;41287;47.554;7.844;2022-10-10T11:16:15;98200.16;;;19.95;60.35
55418;BME280;41287;47.554;7.844;2022-10-10T11:21:39;98191.66;;;19.96;60.43
55418;BME280;41287;47.554;7.844;2022-10-10T11:24:12;98187.00;;;19.97;60.53
55418;BME280;41287;47.554;7.844;2022-10-10T11:26:43;98195.97;;;19.97;60.45
55418;BME280;41287;47.554;7.844;2022-10-10T11:29:29;98203.66;;;19.95;60.54
55418;BME280;41287;47.554;7.844;2022-10-10T11:32:03;98198.69;;;19.97;60.52
55418;BME280;41287;47.554;7.844;2022-10-10T11:37:24;98191.31;;;19.98;60.46
55418;BME280;41287;47.554;7.844;2022-10-10T11:39:54;98192.13;;;19.98;60.48
55418;BME280;41287;47.554;7.844;2022-10-10T11:42:39;98183.50;;;19.96;60.50
55418;BME280;41287;47.554;7.844;2022-10-10T11:45:16;98182.38;;;19.97;60.54
55418;BME280;41287;47.554;7.844;2022-10-10T11:48:11;98184.28;;;19.97;60.61
55418;BME280;41287;47.554;7.844;2022-10-10T11:50:39;98175.66;;;19.95;60.69
55418;BME280;41287;47.554;7.844;2022-10-10T11:53:35;98175.00;;;19.98;60.51
55418;BME280;41287;47.554;7.844;2022-10-10T11:56:11;98174.19;;;19.97;60.53
55418;BME280;41287;47.554;7.844;2022-10-10T11:58:42;98166.84;;;19.98;60.60
55418;BME280;41287;47.554;7.844;2022-10-10T12:01:35;98169.91;;;19.96;60.58
55418;BME280;41287;47.554;7.844;2022-10-10T12:04:01;98161.41;;;19.98;60.62
55418;BME280;41287;47.554;7.844;2022-10-10T12:06:34;98169.91;;;19.96;60.54
55418;BME280;41287;47.554;7.844;2022-10-10T12:09:12;98166.03;;;19.97;60.68
55418;BME280;41287;47.554;7.844;2022-10-10T12:11:39;98169.56;;;19.98;60.56
55418;BME280;41287;47.554;7.844;2022-10-10T12:14:11;98164.91;;;19.98;60.65
55418;BME280;41287;47.554;7.844;2022-10-10T12:16:38;98164.91;;;19.98;60.62
55418;BME280;41287;47.554;7.844;2022-10-10T12:19:20;98155.50;;;19.96;60.61
55418;BME280;41287;47.554;7.844;2022-10-10T12:22:03;98159.34;;;19.95;60.49
55418;BME280;41287;47.554;7.844;2022-10-10T12:24:30;98149.59;;;19.94;60.60
55418;BME280;41287;47.554;7.844;2022-10-10T12:34:57;98144.63;;;19.96;60.56
55418;BME280;41287;47.554;7.844;2022-10-10T12:37:25;98135.00;;;19.98;60.70
55418;BME280;41287;47.554;7.844;2022-10-10T12:42:33;98126.84;;;19.98;61.12
55418;BME280;41287;47.554;7.844;2022-10-10T12:44:59;98118.31;;;20.00;61.24
55418;BME280;41287;47.554;7.844;2022-10-10T12:47:40;98120.59;;;19.98;61.72
55418;BME280;41287;47.554;7.844;2022-10-10T12:50:22;98126.47;;;20.00;61.68
55418;BME280;41287;47.554;7.844;2022-10-10T12:52:52;98125.00;;;20.02;61.60
55418;BME280;41287;47.554;7.844;2022-10-10T12:55:25;98123.88;;;20.03;61.57
55418;BME280;41287;47.554;7.844;2022-10-10T12:57:56;98126.59;;;20.03;61.46
55418;BME280;41287;47.554;7.844;2022-10-10T13:00:38;98121.16;;;20.03;61.50
55418;BME280;41287;47.554;7.844;2022-10-10T13:03:12;98118.44;;;20.03;61.46
55418;BME280;41287;47.554;7.844;2022-10-10T13:05:41;98114.59;;;20.04;61.50
55418;BME280;41287;47.554;7.844;2022-10-10T13:08:13;98126.25;;;20.05;61.51
55418;BME280;41287;47.554;7.844;2022-10-10T13:10:39;98120.81;;;20.05;61.51
55418;BME280;41287;47.554;7.844;2022-10-10T13:13:19;98123.88;;;20.03;61.59
55418;BME280;41287;47.554;7.844;2022-10-10T13:15:57;98121.63;;;20.05;61.64
55418;BME280;41287;47.554;7.844;2022-10-10T13:18:50;98113.00;;;20.03;61.75
55418;BME280;41287;47.554;7.844;2022-10-10T13:21:22;98109.16;;;20.04;61.66
55418;BME280;41287;47.554;7.844;2022-10-10T13:23:49;98114.25;;;20.06;61.59
55418;BME280;41287;47.554;7.844;2022-10-10T13:26:26;98107.22;;;20.05;61.56
55418;BME280;41287;47.554;7.844;2022-10-10T13:28:56;98110.75;;;20.05;61.53
55418;BME280;41287;47.554;7.844;2022-10-10T13:31:26;98108.44;;;20.07;61.52
55418;BME280;41287;47.554;7.844;2022-10-10T13:34:04;98105.63;;;20.04;61.53
55418;BME280;41287;47.554;7.844;2022-10-10T13:36:31;98109.59;;;20.06;61.51
55418;BME280;41287;47.554;7.844;2022-10-10T13:38:57;98109.59;;;20.06;61.44
55418;BME280;41287;47.554;7.844;2022-10-10T13:41:23;98110.38;;;20.07;61.49
55418;BME280;41287;47.554;7.844;2022-10-10T13:43:49;98113.88;;;20.07;61.46
55418;BME280;41287;47.554;7.844;2022-10-10T13:46:31;98107.22;;;20.05;61.54
55418;BME280;41287;47.554;7.844;2022-10-10T13:48:58;98107.66;;;20.07;61.43
55418;BME280;41287;47.554;7.844;2022-10-10T13:51:43;98107.22;;;20.05;61.50
55418;BME280;41287;47.554;7.844;2022-10-10T13:54:35;98107.22;;;20.05;61.42
55418;BME280;41287;47.554;7.844;2022-10-10T13:57:01;98111.97;;;20.08;61.31
55418;BME280;41287;47.554;7.844;2022-10-10T13:59:28;98108.44;;;20.07;61.28
55418;BME280;41287;47.554;7.844;2022-10-10T14:01:59;98110.38;;;20.07;61.36
55418;BME280;41287;47.554;7.844;2022-10-10T14:04:36;98106.09;;;20.06;61.40
55418;BME280;41287;47.554;7.844;2022-10-10T14:07:10;98101.41;;;20.06;61.33
55418;BME280;41287;47.554;7.844;2022-10-10T14:09:40;98102.69;;;20.09;61.35
55418;BME280;41287;47.554;7.844;2022-10-10T14:12:19;98109.59;;;20.06;61.34
55418;BME280;41287;47.554;7.844;2022-10-10T14:14:48;98103.81;;;20.08;61.27
55418;BME280;41287;47.554;7.844;2022-10-10T14:17:14;98102.22;;;20.07;61.32
55418;BME280;41287;47.554;7.844;2022-10-10T14:19:41;98103.81;;;20.08;61.25
55418;BME280;41287;47.554;7.844;2022-10-10T14:22:07;98110.03;;;20.08;61.29
55418;BME280;41287;47.554;7.844;2022-10-10T14:24:32;98103.81;;;20.08;61.24
55418;BME280;41287;47.554;7.844;2022-10-10T14:29:44;98105.41;;;20.09;61.20
55418;BME280;41287;47.554;7.844;2022-10-10T14:32:11;98107.31;;;20.08;61.09